WetterOnline ( https://www.wetteronline.de )

Wetter aktuell Heidersbacher Mühle

Aktuelles Wetter: Michelstadt-Vielbrunn (455m)

6-stündlich | Neueste Meldungen
Ortszeit Temperatur Wetter
Do, 18.07. 8:00 16.9° C leicht bewölkt
Do, 18.07. 2:00 16.3° C leicht bewölkt
Mi, 17.07. 20:00 20.9° C wolkenlos
Mi, 17.07. 14:00 20.4° C bedeckt
Mi, 17.07. 8:00 16.1° C bewölkt
Mi, 17.07. 2:00 16.3° C wolkenlos
Di, 16.07. 20:00 19.5° C leicht bewölkt
Di, 16.07. 14:00 21.6° C leicht bewölkt
Ortszeit Temperatur Wetter
Do, 18.07. 13:30 23.3° C wolkig
Do, 18.07. 13:20 23.3° C wolkig
Do, 18.07. 13:10 23.3° C leicht bewölkt
Do, 18.07. 13:00 23.1° C leicht bewölkt
Do, 18.07. 12:50 23.1° C leicht bewölkt
Do, 18.07. 12:40 23.0° C wolkig
Do, 18.07. 12:30 22.7° C wolkig
Do, 18.07. 12:00 21.9° C leicht bewölkt
Do, 18.07. 11:30 21.4° C wolkig
Do, 18.07. 11:00 20.7° C leicht bewölkt
Do, 18.07. 10:30 20.4° C leicht bewölkt
Ortszeit Relative Feuchte Sichtweite
Do, 18.07. 8:00 78% >70 km
Do, 18.07. 2:00 79% 65 km
Mi, 17.07. 20:00 61% >70 km
Mi, 17.07. 14:00 60% >70 km
Mi, 17.07. 8:00 76% >70 km
Mi, 17.07. 2:00 71% 55 km
Di, 16.07. 20:00 67% 60 km
Di, 16.07. 14:00 59% >70 km
Ortszeit Relative Feuchte Sichtweite
Do, 18.07. 13:30 53% 40 km
Do, 18.07. 13:20 53% -
Do, 18.07. 13:10 56% -
Do, 18.07. 13:00 53% 60 km
Do, 18.07. 12:50 53% -
Do, 18.07. 12:40 56% -
Do, 18.07. 12:30 57% 55 km
Do, 18.07. 12:00 57% 55 km
Do, 18.07. 11:30 59% 60 km
Do, 18.07. 11:00 61% 55 km
Do, 18.07. 10:30 68% >70 km
Ortszeit Niederschlagsmenge Niederschlagsart
Do, 18.07. 8:00 0.0 l/m2 in 12 Std. -
Do, 18.07. 2:00 0.0 l/m2 in 6 Std. -
Mi, 17.07. 20:00 0.0 l/m2 in 12 Std. -
Mi, 17.07. 14:00 0.0 l/m2 in 6 Std. -
Mi, 17.07. 8:00 0.0 l/m2 in 12 Std. -
Mi, 17.07. 2:00 0.0 l/m2 in 6 Std. -
Di, 16.07. 20:00 0.2 l/m2 in 12 Std. Regen
Di, 16.07. 14:00 0.0 l/m2 in 6 Std. -
Ortszeit Niederschlagsmenge Niederschlagsart
Do, 18.07. 13:30 0.0 l/m2 in 30 Min -
Do, 18.07. 13:20 keine Meldung -
Do, 18.07. 13:10 keine Meldung -
Do, 18.07. 13:00 0.0 l/m2 in 1 Std. -
Do, 18.07. 12:50 keine Meldung -
Do, 18.07. 12:40 keine Meldung -
Do, 18.07. 12:30 0.0 l/m2 in 30 Min -
Do, 18.07. 12:00 0.0 l/m2 in 1 Std. -
Do, 18.07. 11:30 0.0 l/m2 in 30 Min -
Do, 18.07. 11:00 0.0 l/m2 in 1 Std. -
Do, 18.07. 10:30 0.0 l/m2 in 30 Min -
Ortszeit Stärke Spitze Richtung
km/h Bft. km/h Grad Sektor
Do, 18.07. 8:00 7 2 14 140° SO
Do, 18.07. 2:00 7 2 9 140° SO
Mi, 17.07. 20:00 7 2 22 330° NW
Mi, 17.07. 14:00 11 2 29 280° W
Mi, 17.07. 8:00 9 2 20 230° SW
Mi, 17.07. 2:00 9 2 26 240° SW
Di, 16.07. 20:00 13 3 43 250° W
Di, 16.07. 14:00 18 3 40 230° SW
Ortszeit Stärke Spitze Richtung
km/h Bft. km/h Grad Sektor
Do, 18.07. 13:30 11 2 18 90° O
Do, 18.07. 13:20 11 2 - 90° O
Do, 18.07. 13:10 9 2 - 70° O
Do, 18.07. 13:00 11 2 22 110° O
Do, 18.07. 12:50 11 2 - 110° O
Do, 18.07. 12:40 7 2 - 110° O
Do, 18.07. 12:30 9 2 15 80° O
Do, 18.07. 12:00 11 2 22 120° SO
Do, 18.07. 11:30 11 2 22 110° O
Do, 18.07. 11:00 11 2 22 80° O
Do, 18.07. 10:30 11 2 17 80° O
Ortszeit Untergrenze Bedeckung Gattung
total tief tief mittel hoch
Do, 18.07. 8:00 9000 m 7/8 0/8 - - -
Do, 18.07. 2:00 8400 m 4/8 0/8 - - -
Mi, 17.07. 20:00 - 0/8 0/8 - - -
Mi, 17.07. 14:00 1290 m 8/8 8/8 - - -
Mi, 17.07. 8:00 5700 m 7/8 7/8 - - -
Mi, 17.07. 2:00 - 0/8 0/8 - - -
Di, 16.07. 20:00 2400 m 4/8 4/8 - - -
Di, 16.07. 14:00 1140 m 3/8 3/8 - - -
Ortszeit Bedeckungsgrad in Achtel und Wolkenuntergrenze
Do, 18.07. 13:30 4(6900m) 5(10500m)
Do, 18.07. 13:20 4(6900m) 5(10500m)
Do, 18.07. 13:10 3
Do, 18.07. 13:00 2(8100m) 3(9000m) 5(10500m)
Do, 18.07. 12:50 2(8100m) 3(9000m) 5(10500m)
Do, 18.07. 12:40 6
Do, 18.07. 12:30 7(8100m) 8(8700m)
Do, 18.07. 12:00 7(8100m)
Do, 18.07. 11:30 8(8100m)
Do, 18.07. 11:00 3(8100m) 4(8700m)
Do, 18.07. 10:30 5(8100m)
Ortszeit Luftdruck NN (hPa) Tendenz (hPa in 3 Std.)
Do, 18.07. 8:00 1023 + 0,6
Do, 18.07. 2:00 1023 + 0,1
Mi, 17.07. 20:00 1021 + 0,3
Mi, 17.07. 14:00 1021 + 0,5
Mi, 17.07. 8:00 1021 + 1,6
Mi, 17.07. 2:00 1018 + 0,4
Di, 16.07. 20:00 1015 + 1,1
Di, 16.07. 14:00 1014 + 0,3
Ortszeit Luftdruck NN (hPa) Tendenz (hPa in 3 Std.)
Do, 18.07. 13:30 1021 - 0,4
Do, 18.07. 13:20 1021 keine Meldung
Do, 18.07. 13:10 1021 keine Meldung
Do, 18.07. 13:00 1021 - 0,6
Do, 18.07. 12:50 1021 keine Meldung
Do, 18.07. 12:40 1022 keine Meldung
Do, 18.07. 12:30 1022 - 0,3
Do, 18.07. 12:00 1022 - 0,2
Do, 18.07. 11:30 1022 - 0,2
Do, 18.07. 11:00 1022 0,0
Do, 18.07. 10:30 1022 + 0,2
Ortszeit Schneehöhe (cm)
Do, 18.07. 8:00 0
Do, 18.07. 2:00 0
Mi, 17.07. 20:00 0
Mi, 17.07. 14:00 0
Mi, 17.07. 8:00 0
Mi, 17.07. 2:00 0
Di, 16.07. 20:00 0
Di, 16.07. 14:00 0
Ortszeit Schneehöhe (cm)
Do, 18.07. 13:30 0
Do, 18.07. 13:20 0
Do, 18.07. 13:10 -
Do, 18.07. 13:00 0
Do, 18.07. 12:50 0
Do, 18.07. 12:40 -
Do, 18.07. 12:30 0
Do, 18.07. 12:00 0
Do, 18.07. 11:30 0
Do, 18.07. 11:00 0
Do, 18.07. 10:30 0
Link zu dieser Seite / Seite empfehlen

Das Wetter in ...